ADDS METAR Data INFO
IDs: Format: Raw Decoded Include TAF

Data at: 0214 UTC 17 Aug 2018

NZWN 170200Z AUTO 01014KT 9999 FEW032/// SCT042/// 15/08 Q0998 NOSIG
NZWN 170130Z AUTO 01014KT 9999 SCT031/// 15/09 Q0998 NOSIG
NZWN 170100Z AUTO 01012KT 9999 FEW024 SCT100 15/09 Q0998 NOSIG
NZWN 170030Z AUTO 36013KT 9999 BKN025/// 14/10 Q0998 NOSIG
NZWN 170000Z AUTO 01016KT 9999 SCT026/// BKN031/// BKN100/// 15/09 Q0999 NOSIG
NZWN 162330Z AUTO 36011KT 9999 FEW025/// 15/10 Q0998 NOSIG

TAF NZWN 162309Z 1700/1800 35015KT 9999 BKN020
  BECMG 1710/1712 20010KT
  BECMG 1714/1716 20020G30KT
  TEMPO 1714/1721 5000 SHRA BKN012 FEW020TCU